createdAt,value
2023-02-05T00:15:10.067Z,0.78
2023-02-05T00:17:10.010Z,0.61
2023-02-05T00:18:10.013Z,0.43
2023-02-05T00:19:09.966Z,0.73
2023-02-05T00:20:09.938Z,0.74
2023-02-05T00:21:09.918Z,0.75
2023-02-05T00:22:09.872Z,0.76
2023-02-05T00:23:09.843Z,0.71
2023-02-05T00:24:09.845Z,0.68
2023-02-05T00:25:09.816Z,0.53
2023-02-05T00:26:09.785Z,0.57
2023-02-05T00:27:09.767Z,0.82
2023-02-05T00:28:09.763Z,0.85
2023-02-05T00:29:09.706Z,0.75
2023-02-05T00:30:09.688Z,0.52
2023-02-05T00:31:09.794Z,0.68
2023-02-05T00:32:09.647Z,0.56
2023-02-05T00:33:09.583Z,0.88
2023-02-05T00:34:09.577Z,0.56
2023-02-05T00:35:09.552Z,0.42
2023-02-05T00:36:11.807Z,0.80
2023-02-05T00:37:09.485Z,0.56
2023-02-05T00:38:09.446Z,0.78
2023-02-05T00:39:09.419Z,0.59
2023-02-05T00:40:09.401Z,0.53
2023-02-05T00:41:09.365Z,0.72
2023-02-05T00:42:09.360Z,0.74
2023-02-05T00:43:09.326Z,0.81
2023-02-05T00:44:09.298Z,0.83
2023-02-05T00:45:09.268Z,0.52
2023-02-05T00:46:09.281Z,0.78
2023-02-05T00:47:09.221Z,0.84
2023-02-05T00:48:09.190Z,0.78
2023-02-05T00:49:09.142Z,0.78
2023-02-05T00:51:09.146Z,0.86
2023-02-05T00:52:09.125Z,0.78
2023-02-05T00:53:09.082Z,0.77
2023-02-05T00:54:09.018Z,0.67
2023-02-05T00:55:09.007Z,0.66
2023-02-05T00:56:08.978Z,0.59
2023-02-05T00:57:08.941Z,0.84
2023-02-05T00:58:08.909Z,0.59
2023-02-05T00:59:08.883Z,0.64
2023-02-05T01:00:08.895Z,0.97
2023-02-05T01:01:08.904Z,0.82
2023-02-05T01:02:08.840Z,0.75
2023-02-05T01:03:08.766Z,0.59
2023-02-05T01:04:08.751Z,0.66
2023-02-05T01:05:08.722Z,0.95
2023-02-05T01:06:08.690Z,0.65
2023-02-05T01:07:08.672Z,0.66
2023-02-05T01:08:08.654Z,0.73
2023-02-05T01:09:08.613Z,0.56
2023-02-05T01:10:08.604Z,0.73
2023-02-05T01:11:08.582Z,0.74
2023-02-05T01:12:08.562Z,0.49
2023-02-05T01:13:08.609Z,0.57
2023-02-05T01:14:08.533Z,0.69
2023-02-05T01:15:08.498Z,0.46
2023-02-05T01:16:08.528Z,0.73
2023-02-05T01:17:08.450Z,0.48
2023-02-05T01:18:08.421Z,0.59
2023-02-05T01:19:08.410Z,0.54
2023-02-05T01:20:08.386Z,0.67
2023-02-05T01:21:08.373Z,0.63
2023-02-05T01:22:08.335Z,0.52
2023-02-05T01:23:08.322Z,0.68
2023-02-05T01:24:08.256Z,0.74
2023-02-05T01:25:08.260Z,0.99
2023-02-05T01:26:08.238Z,0.56
2023-02-05T01:27:08.195Z,0.75
2023-02-05T01:28:08.210Z,0.73
2023-02-05T01:29:08.130Z,0.70
2023-02-05T01:30:08.109Z,0.69
2023-02-05T01:31:08.148Z,0.61
2023-02-05T01:32:08.049Z,0.55
2023-02-05T01:33:08.007Z,0.59
2023-02-05T01:34:07.980Z,0.71
2023-02-05T01:35:07.953Z,0.79
2023-02-05T01:36:07.940Z,0.70
2023-02-05T01:37:07.891Z,0.65
2023-02-05T01:38:07.876Z,0.65
2023-02-05T01:39:07.838Z,0.82
2023-02-05T01:40:07.837Z,0.48
2023-02-05T01:42:08.180Z,0.62
2023-02-05T01:48:08.173Z,0.61
2023-02-05T09:39:13.493Z,3.89
2023-02-05T09:40:20.166Z,3.46
2023-02-05T09:40:59.871Z,3.67
2023-02-05T09:41:58.771Z,3.88
2023-02-05T09:42:58.877Z,3.54
2023-02-05T09:43:58.743Z,3.36
2023-02-05T09:44:58.716Z,3.82
2023-02-05T09:45:58.714Z,3.62
2023-02-05T09:46:58.704Z,3.58
2023-02-05T09:47:58.673Z,3.52
2023-02-05T09:48:58.649Z,3.49
2023-02-05T09:49:58.661Z,3.77
2023-02-05T10:07:58.230Z,3.17
2023-02-05T10:09:58.165Z,2.94
2023-02-05T10:10:58.130Z,3.09
2023-02-05T10:11:58.151Z,3.59
2023-02-05T10:12:58.079Z,3.33
2023-02-05T10:13:58.056Z,3.65
2023-02-05T10:14:58.050Z,3.31
2023-02-05T10:15:58.041Z,3.33
2023-02-05T10:16:57.997Z,3.37
2023-02-05T10:17:57.971Z,3.23
2023-02-05T10:18:57.986Z,3.27
2023-02-05T10:19:57.922Z,3.25
2023-02-05T10:20:57.932Z,3.23
2023-02-05T10:21:57.891Z,3.05
2023-02-05T10:22:57.870Z,3.15
2023-02-05T10:23:57.841Z,3.21
2023-02-05T10:24:57.809Z,2.86
2023-02-05T10:41:00.173Z,2.74
2023-02-05T10:41:57.926Z,2.91
2023-02-05T10:42:57.893Z,2.93
2023-02-05T10:43:57.857Z,3.12
2023-02-05T10:44:57.838Z,2.73
2023-02-05T10:50:57.845Z,2.89
2023-02-05T10:51:57.898Z,2.92
2023-02-05T10:52:57.901Z,2.85
2023-02-05T10:53:57.967Z,2.35
2023-02-05T10:54:57.974Z,2.80
2023-02-05T10:55:58.013Z,2.67
2023-02-05T10:56:57.991Z,2.35
2023-02-05T10:57:57.961Z,2.85
2023-02-05T10:58:57.944Z,3.10
2023-02-05T10:59:57.944Z,3.24
2023-02-05T11:00:57.904Z,2.29
2023-02-05T11:01:57.956Z,2.72
2023-02-05T11:02:57.883Z,2.60
2023-02-05T11:13:58.352Z,2.60
2023-02-05T11:43:57.874Z,2.35
2023-02-05T11:52:57.860Z,2.58
2023-02-05T11:54:57.891Z,2.01
2023-02-05T11:55:58.876Z,1.96
2023-02-05T12:09:57.898Z,2.23
2023-02-05T12:30:57.962Z,1.76
2023-02-05T12:45:57.951Z,1.97
2023-02-05T12:58:57.886Z,2.06
2023-02-05T13:22:57.887Z,1.84
2023-02-05T13:32:00.021Z,2.14
2023-02-05T13:39:57.916Z,1.48
2023-02-05T14:16:58.454Z,2.11
2023-02-05T14:30:58.555Z,1.96
2023-02-05T14:46:58.437Z,1.57
2023-02-05T15:06:57.962Z,1.28
2023-02-05T15:07:57.960Z,1.31
2023-02-05T15:08:58.046Z,1.33
2023-02-05T15:09:57.948Z,1.50
2023-02-05T15:10:58.958Z,1.54
2023-02-05T15:11:58.439Z,1.33
2023-02-05T15:12:57.996Z,1.27
2023-02-05T15:13:57.971Z,1.30
2023-02-05T15:14:58.103Z,1.53
2023-02-05T15:16:58.437Z,1.38
2023-02-05T15:31:57.983Z,1.66
2023-02-05T15:32:58.479Z,1.39
2023-02-05T15:33:57.894Z,1.70
2023-02-05T15:34:58.495Z,1.39
2023-02-05T15:35:57.939Z,1.21
2023-02-05T15:40:58.454Z,1.62
2023-02-05T16:00:57.831Z,1.54
2023-02-05T16:01:57.940Z,1.72
2023-02-05T16:02:57.932Z,1.45
2023-02-05T16:03:58.086Z,1.46
2023-02-05T16:04:58.140Z,1.49
2023-02-05T16:05:58.185Z,1.40
2023-02-05T16:06:58.212Z,1.80
2023-02-05T16:07:58.130Z,1.34
2023-02-05T16:08:58.149Z,1.23
2023-02-05T16:09:58.168Z,1.48
2023-02-05T16:10:58.954Z,1.50
2023-02-05T16:11:58.244Z,1.64
2023-02-05T16:12:58.479Z,1.45
2023-02-05T16:13:58.318Z,1.26
2023-02-05T16:14:58.365Z,1.42
2023-02-05T16:15:58.343Z,1.51
2023-02-05T16:16:58.965Z,1.22
2023-02-05T16:17:58.279Z,1.17
2023-02-05T16:18:58.279Z,1.48
2023-02-05T16:19:58.963Z,1.22
2023-02-05T16:20:58.151Z,1.39
2023-02-05T16:21:59.348Z,1.30
2023-02-05T16:22:58.104Z,1.20
2023-02-05T16:23:58.118Z,1.17
2023-02-05T16:24:58.046Z,1.15
2023-02-05T16:25:58.070Z,1.71
2023-02-05T16:26:58.250Z,1.37
2023-02-05T16:28:00.025Z,1.61
2023-02-05T16:28:58.255Z,1.37
2023-02-05T16:29:58.143Z,1.26
2023-02-05T16:30:58.208Z,1.47
2023-02-05T16:31:58.093Z,1.36
2023-02-05T16:32:58.033Z,1.18
2023-02-05T16:33:58.500Z,1.59
2023-02-05T16:34:58.028Z,1.66
2023-02-05T16:35:57.981Z,1.34
2023-02-05T16:36:58.149Z,1.31
2023-02-05T16:37:57.928Z,1.29
2023-02-05T16:38:57.932Z,1.31
2023-02-05T16:39:57.897Z,1.37
2023-02-05T16:40:57.929Z,1.46
2023-02-05T16:41:57.980Z,1.63
2023-02-05T16:42:58.003Z,1.54
2023-02-05T16:43:58.065Z,1.60
2023-02-05T16:44:58.070Z,1.05
2023-02-05T16:45:58.243Z,1.10
2023-02-05T16:46:58.246Z,1.32
2023-02-05T16:47:58.353Z,1.01
2023-02-05T16:48:58.477Z,1.77
2023-02-05T16:49:58.279Z,1.25
2023-02-05T16:50:58.349Z,1.40
2023-02-05T16:51:58.446Z,1.01
2023-02-05T16:52:58.964Z,1.24
2023-02-05T16:53:59.013Z,1.46
2023-02-05T16:54:58.402Z,1.35
2023-02-05T16:55:59.986Z,1.51
2023-02-05T16:56:58.969Z,1.24
2023-02-05T16:57:58.426Z,1.04
2023-02-05T16:58:58.321Z,1.28
2023-02-05T16:59:58.378Z,1.23
2023-02-05T17:00:58.293Z,1.42
2023-02-05T17:01:58.235Z,1.12
2023-02-05T17:02:58.284Z,1.49
2023-02-05T17:03:58.510Z,1.11
2023-02-05T17:04:58.981Z,1.53
2023-02-05T17:05:58.984Z,1.46
2023-02-05T17:06:58.411Z,1.39
2023-02-05T17:07:58.304Z,1.50
2023-02-05T17:08:58.254Z,1.59
2023-02-05T17:09:58.237Z,1.46
2023-02-05T17:10:58.222Z,1.22
2023-02-05T17:11:58.241Z,1.23
2023-02-05T17:12:58.380Z,1.35
2023-02-05T17:13:58.486Z,1.40
2023-02-05T17:14:58.495Z,1.43
2023-02-05T17:15:58.486Z,1.22
2023-02-05T17:16:58.488Z,1.37
2023-02-05T17:17:58.466Z,1.29
2023-02-05T17:18:58.491Z,1.36
2023-02-05T17:19:58.537Z,1.36
2023-02-05T17:20:58.575Z,1.31
2023-02-05T17:21:58.585Z,1.45
2023-02-05T17:22:58.630Z,1.65
2023-02-05T17:23:58.677Z,1.22
2023-02-05T17:24:58.707Z,1.48
2023-02-05T17:25:58.751Z,1.26
2023-02-05T17:26:58.778Z,1.15
2023-02-05T17:27:58.806Z,1.41
2023-02-05T17:28:58.940Z,1.14
2023-02-05T17:29:58.890Z,1.34
2023-02-05T17:30:58.916Z,1.27
2023-02-05T17:31:58.932Z,1.32
2023-02-05T17:32:59.012Z,1.53
2023-02-05T17:33:59.044Z,1.30
2023-02-05T17:34:59.046Z,1.80
2023-02-05T17:35:59.082Z,1.27
2023-02-05T17:36:59.102Z,1.23
2023-02-05T17:37:59.143Z,1.30
2023-02-05T17:38:59.201Z,1.58
2023-02-05T17:39:59.240Z,1.45
2023-02-05T17:40:59.259Z,1.24
2023-02-05T17:41:59.293Z,1.41
2023-02-05T17:42:59.357Z,1.73
2023-02-05T17:43:59.385Z,1.53
2023-02-05T17:44:59.441Z,1.41
2023-02-05T17:45:59.502Z,1.45
2023-02-05T17:46:59.459Z,1.17
2023-02-05T17:47:59.507Z,1.27
2023-02-05T17:48:59.547Z,1.18
2023-02-05T17:49:59.619Z,1.33
2023-02-05T17:50:59.632Z,1.15
2023-02-05T17:51:59.749Z,1.11
2023-02-05T17:52:59.676Z,1.33
2023-02-05T17:53:59.748Z,1.09
2023-02-05T17:54:59.781Z,1.14
2023-02-05T17:55:59.792Z,1.32
2023-02-05T17:57:01.525Z,0.98
2023-02-05T17:57:59.832Z,1.38
2023-02-05T17:58:59.783Z,1.13
2023-02-05T17:59:59.779Z,1.13
2023-02-05T18:00:59.821Z,0.85
2023-02-05T18:01:59.795Z,1.24
2023-02-05T18:02:59.703Z,1.38
2023-02-05T18:03:59.705Z,1.21
2023-02-05T18:04:59.657Z,1.19
2023-02-05T18:05:59.648Z,1.39
2023-02-05T18:06:59.625Z,1.49
2023-02-05T18:07:59.621Z,1.31
2023-02-05T18:09:59.656Z,1.35
2023-02-05T18:10:59.560Z,1.12
2023-02-05T18:11:59.526Z,1.00
2023-02-05T18:12:59.479Z,1.26
2023-02-05T18:13:59.464Z,0.92
2023-02-05T18:14:59.427Z,1.34
2023-02-05T18:15:59.435Z,1.25
2023-02-05T18:16:59.422Z,1.37
2023-02-05T18:17:59.348Z,1.20
2023-02-05T18:18:59.329Z,1.02
2023-02-05T18:19:59.297Z,1.33
2023-02-05T18:20:59.282Z,1.41
2023-02-05T18:21:59.270Z,1.33
2023-02-05T18:22:59.271Z,1.25
2023-02-05T18:23:59.218Z,1.30
2023-02-05T18:24:59.189Z,1.24
2023-02-05T18:25:59.179Z,1.20
2023-02-05T18:26:59.139Z,1.49
2023-02-05T18:28:00.060Z,1.15
2023-02-05T18:28:59.094Z,0.98
2023-02-05T18:29:59.067Z,1.26
2023-02-05T18:30:59.153Z,1.17
2023-02-05T18:31:59.021Z,1.12
2023-02-05T18:32:58.978Z,1.30
2023-02-05T18:33:58.991Z,1.55
2023-02-05T18:34:58.982Z,1.15
2023-02-05T18:35:58.951Z,1.56
2023-02-05T18:36:58.893Z,1.53
2023-02-05T18:37:58.876Z,1.25
2023-02-05T18:38:58.851Z,1.06
2023-02-05T18:39:58.831Z,1.55
2023-02-05T18:40:58.820Z,1.42
2023-02-05T18:41:58.898Z,1.28
2023-02-05T18:42:58.724Z,1.41
2023-02-05T18:43:58.784Z,1.37
2023-02-05T18:44:59.532Z,1.13
2023-02-05T18:45:58.703Z,1.41
2023-02-05T18:46:58.756Z,1.35
2023-02-05T18:47:58.682Z,1.10
2023-02-05T18:48:58.635Z,1.23
2023-02-05T18:49:58.560Z,1.45
2023-02-05T18:50:58.510Z,1.34
2023-02-05T18:51:58.534Z,1.34
2023-02-05T18:52:58.459Z,0.90
2023-02-05T18:53:58.459Z,0.86
2023-02-05T18:54:58.401Z,1.25
2023-02-05T18:55:58.373Z,1.37
2023-02-05T18:56:58.356Z,1.09
2023-02-05T18:57:58.309Z,1.22
2023-02-05T18:58:58.301Z,1.34
2023-02-05T18:59:58.265Z,1.12
2023-02-05T19:00:58.334Z,1.40
2023-02-05T19:01:58.207Z,1.31
2023-02-05T19:02:58.226Z,1.27
2023-02-05T19:03:58.141Z,1.28
2023-02-05T19:04:59.020Z,0.96
2023-02-05T19:05:58.107Z,1.30
2023-02-05T19:06:58.064Z,1.19
2023-02-05T19:07:58.023Z,1.40
2023-02-05T19:08:58.020Z,1.18
2023-02-05T19:09:57.977Z,1.29
2023-02-05T19:10:57.980Z,1.10
2023-02-05T19:11:57.928Z,1.41
2023-02-05T19:12:57.898Z,1.05
2023-02-05T19:13:57.877Z,1.20
2023-02-05T19:14:57.878Z,1.17
2023-02-05T23:31:51.246Z,1.26
2023-02-05T23:52:50.734Z,1.25
2023-02-05T23:53:50.707Z,0.96
2023-02-05T23:54:50.677Z,1.12
2023-02-05T23:55:50.647Z,1.09
2023-02-05T23:56:50.610Z,1.14
2023-02-05T23:57:50.600Z,1.16
2023-02-05T23:58:50.571Z,1.33
2023-02-05T23:59:50.561Z,1.46
